Flight Track Log - Related Links

Times and Time Zones

All times are in EDT time to prevent confusion due to time zone crossing. See the FSR411 flight status page for this flight to view local times or setup timezone preferences in your user account.

Time Position Orientation Groundspeed Altitude Reporting Facility
EDT Latitude Longitude Course Direction KTS MPH feet Rate Location/Type
Wed 08:02:21 AM 42.4408 -83.0356 331° Northwest 186 214 1,900  Level Cleveland Center
Wed 08:03:13 AM 42.4600 -82.9914 60° Northeast 226 260 2,600 1,167 Climbing Cleveland Center
Wed 08:03:33 AM 42.4419 -82.9650 133° Southeast 227 261 3,300 1,548 Climbing Cleveland Center
Wed 08:04:15 AM 42.4183 -82.9258 129° Southeast 230 265 4,200 1,418 Climbing Cleveland Center
Wed 08:04:28 AM 42.4072 -82.8981 118° Southeast 250 288 4,600 774 Climbing Cleveland Center
Wed 08:05:17 AM 42.3639 -82.8706 155° Southeast 261 300 5,000 885 Climbing Cleveland Center
Wed 08:05:29 AM 42.3403 -82.8694 178° South 271 312 5,500 2,613 Climbing Cleveland Center
Wed 08:06:19 AM 42.2928 -82.8878 196° South 269 310 7,700 3,268 Climbing Cleveland Center
Wed 08:07:21 AM 42.2186 -82.9719 220° Southwest 288 331 11,600 3,145 Climbing Cleveland Center
Wed 08:08:23 AM 42.1428 -83.0581 220° Southwest 350 403 14,200 1,742 Climbing Cleveland Center
Wed 08:09:25 AM 42.0592 -83.1506 219° Southwest 382 440 15,200 2,016 Climbing Cleveland Center
Wed 08:10:28 AM 41.9728 -83.2464 220° Southwest 398 458 18,400 3,216 Climbing Cleveland Center
Wed 08:11:30 AM 41.8803 -83.3372 216° Southwest 405 466 21,900 3,242 Climbing Cleveland Center
Wed 08:12:32 AM 41.7775 -83.4081 207° Southwest 412 474 25,100 2,952 Climbing Cleveland Center
Wed 08:13:34 AM 41.6797 -83.4794 209° Southwest 403 464 28,000 2,516 Climbing Cleveland Center
Wed 08:14:36 AM 41.5833 -83.5500 209° Southwest 396 456 30,300 2,129 Climbing Cleveland Center
Wed 08:15:38 AM 41.4644 -83.6361 208° Southwest 404 465 32,400 1,790 Climbing Cleveland Center
Wed 08:16:40 AM 41.3636 -83.7086 208° Southwest 410 472 34,000 1,258 Climbing Cleveland Center
Wed 08:17:42 AM 41.2611 -83.7828 209° Southwest 417 480 35,000 629 Climbing Cleveland Center
Wed 08:18:44 AM 41.1544 -83.8594 208° Southwest 433 498 35,300 484 Climbing Cleveland Center
Wed 08:19:46 AM 41.0275 -83.9500 208° Southwest 447 514 36,000 339 Climbing Cleveland Center
Wed 08:20:48 AM 40.9169 -84.0314 209° Southwest 451 519 36,000  Level Cleveland Center
Wed 08:21:50 AM 40.8075 -84.1075 208° Southwest 447 514 36,000  Level Cleveland Center
Wed 08:22:52 AM 40.7064 -84.1758 207° Southwest 447 514 36,000  Level Cleveland Center
Wed 08:23:54 AM 40.5728 -84.2597 206° Southwest 446 513 36,000  Level Cleveland Center
Wed 08:24:56 AM 40.4617 -84.3300 206° Southwest 444 511 36,000  Level Cleveland Center
Wed 08:25:58 AM 40.3508 -84.4003 206° Southwest 446 513 36,000  Level Cleveland Center
Wed 08:27:00 AM 40.2408 -84.4681 205° Southwest 442 509 36,000  Level Cleveland Center
Wed 08:28:02 AM 40.1308 -84.5381 206° Southwest 441 507 36,000  Level Cleveland Center
Wed 08:29:04 AM 39.9969 -84.6217 206° Southwest 446 513 36,000  Level Cleveland Center
Wed 08:30:26 AM 39.8642 -84.7025 205° Southwest 443 510 36,000  Level Indianapolis Center
Wed 08:31:28 AM 39.7308 -84.7844 205° Southwest 443 510 36,000  Level Indianapolis Center
Wed 08:32:30 AM 39.6214 -84.8536 206° Southwest 442 509 36,000  Level Indianapolis Center
Wed 08:33:31 AM 39.5003 -84.9272 205° Southwest 450 518 36,000  Level Indianapolis Center
Wed 08:34:33 AM 39.3883 -84.9961 205° Southwest 448 516 36,000  Level Indianapolis Center
Wed 08:35:35 AM 39.2747 -85.0653 205° Southwest 450 518 36,000  Level Indianapolis Center
Wed 08:36:36 AM 39.1597 -85.1339 205° Southwest 454 522 36,000 -293 Level Indianapolis Center
Wed 08:37:38 AM 39.0456 -85.2033 205° Southwest 454 522 35,400 -581 Descending Indianapolis Center
Wed 08:38:40 AM 38.9311 -85.2722 205° Southwest 453 521 34,800 -823 Descending Indianapolis Center
Wed 08:39:42 AM 38.8167 -85.3408 205° Southwest 453 521 33,700 -1,258 Descending Indianapolis Center
Wed 08:40:44 AM 38.6833 -85.4214 205° Southwest 445 512 32,200 -1,220 Descending Indianapolis Center
Wed 08:41:45 AM 38.5681 -85.4897 205° Southwest 452 520 31,200 -1,122 Descending Indianapolis Center
Wed 08:42:47 AM 38.4497 -85.5589 205° Southwest 460 529 29,900 -1,500 Descending Indianapolis Center
Wed 08:43:49 AM 38.3358 -85.6269 205° Southwest 454 522 28,100 -1,951 Descending Indianapolis Center
Wed 08:44:50 AM 38.2189 -85.6956 205° Southwest 457 526 25,900 -1,902 Descending Indianapolis Center
Wed 08:45:52 AM 38.1003 -85.7647 205° Southwest 465 535 24,200 -1,935 Descending Indianapolis Center
Wed 08:46:54 AM 37.9892 -85.8289 204° Southwest 440 506 21,900 -2,419 Descending Indianapolis Center
Wed 08:47:56 AM 37.8878 -85.8889 205° Southwest 403 464 19,200 -2,758 Descending Indianapolis Center
Wed 08:48:58 AM 37.7944 -85.9433 205° Southwest 371 427 16,200 -2,878 Descending Indianapolis Center
Wed 08:49:59 AM 37.6881 -86.0042 204° Southwest 348 400 13,300 -2,537 Descending Indianapolis Center
Wed 08:51:01 AM 37.6014 -86.0547 205° Southwest 341 392 11,000 -1,887 Descending Indianapolis Center
Wed 08:52:03 AM 37.5267 -86.0983 205° Southwest 314 361 9,400 -1,742 Descending Indianapolis Center
Wed 08:53:05 AM 37.4539 -86.1406 205° Southwest 289 333 7,400 -1,548 Descending Indianapolis Center
Wed 08:54:07 AM 37.3819 -86.1819 205° Southwest 282 325 6,200 -683 Descending Indianapolis Center
Wed 08:55:08 AM 37.3164 -86.2189 204° Southwest 262 302 6,000 -98 Descending Indianapolis Center
Wed 08:56:10 AM 37.2511 -86.2481 200° South 209 241 6,000 -435 Level Indianapolis Center
Wed 08:57:12 AM 37.1961 -86.2706 198° South 204 235 5,100 -484 Descending Indianapolis Center
Wed 08:58:14 AM 37.1392 -86.2933 198° South 210 242 5,000 -48 Descending Indianapolis Center
Wed 08:59:16 AM 37.1189 -86.2483 119° Southeast 205 236 5,000  Level Indianapolis Center
Wed 09:00:18 AM 37.1661 -86.2106 33° Northeast 201 231 5,000  Level Indianapolis Center
Wed 09:01:19 AM 37.2161 -86.2161 355° North 215 247 5,000  Level Indianapolis Center
Wed 09:02:21 AM 37.1836 -86.2656 230° Southwest 201 231 5,000  Level Indianapolis Center
Wed 09:03:23 AM 37.1317 -86.2994 207° Southwest 207 238 5,000 -871 Level Indianapolis Center
Wed 09:04:25 AM 37.0742 -86.3408 210° Southwest 202 232 3,200 -1,355 Descending Indianapolis Center
Wed 09:05:27 AM 37.0339 -86.3700 210° Southwest 177 204 2,200 -968 Descending Indianapolis Center

Login

Don't have an account? Register now (free) for customized features, flight alerts, and more!